Terminal Aerodrome Forecast
Issued by NWS

Home | Current Version | Previous Version | Text Only | Print | Product List | Glossary Off
Versions: 1 2 3 4 5 6 7 8 9 10 11 12 13 14 15 16 17

000
FTUS43 KBIS 180537
TAFMOT
TAF
KMOT 180537Z 1806/1906 33005KT P6SM SCT250
     FM181200 30006KT P6SM SCT250
     FM190000 05005KT P6SM SCT120
     FM190500 12006KT P6SM SCT120=

USA.gov is the U.S. government's official web portal to all federal, state and local government web resources and services.